sensor_id;sensor_type;location;lat;lon;timestamp;pressure;altitude;pressure_sealevel;temperature;humidity
50065;BME280;64524;47.848;-122.338;2023-05-15T00:00:36;101263.46;;;23.57;100.00
50065;BME280;64524;47.848;-122.338;2023-05-15T00:03:07;101260.90;;;23.61;100.00
50065;BME280;64524;47.848;-122.338;2023-05-15T00:05:39;101261.73;;;23.62;100.00
50065;BME280;64524;47.848;-122.338;2023-05-15T00:08:12;101266.58;;;23.65;100.00
50065;BME280;64524;47.848;-122.338;2023-05-15T00:10:44;101267.59;;;23.67;100.00
50065;BME280;64524;47.848;-122.338;2023-05-15T00:13:28;101275.92;;;23.66;100.00
50065;BME280;64524;47.848;-122.338;2023-05-15T00:15:58;101279.27;;;23.62;100.00
50065;BME280;64524;47.848;-122.338;2023-05-15T00:21:59;101270.14;;;23.43;100.00
50065;BME280;64524;47.848;-122.338;2023-05-15T00:24:28;101258.40;;;23.35;100.00
50065;BME280;64524;47.848;-122.338;2023-05-15T00:29:38;101248.48;;;23.30;100.00
50065;BME280;64524;47.848;-122.338;2023-05-15T00:32:07;101247.66;;;23.34;100.00
50065;BME280;64524;47.848;-122.338;2023-05-15T00:34:37;101244.89;;;23.37;100.00
50065;BME280;64524;47.848;-122.338;2023-05-15T00:37:10;101244.48;;;23.44;100.00
50065;BME280;64524;47.848;-122.338;2023-05-15T00:39:39;101242.99;;;23.52;100.00
50065;BME280;64524;47.848;-122.338;2023-05-15T00:42:12;101238.30;;;23.59;100.00
50065;BME280;64524;47.848;-122.338;2023-05-15T00:44:43;101237.20;;;23.66;100.00
50065;BME280;64524;47.848;-122.338;2023-05-15T00:47:13;101239.48;;;23.72;100.00
50065;BME280;64524;47.848;-122.338;2023-05-15T00:49:48;101241.23;;;23.77;100.00
50065;BME280;64524;47.848;-122.338;2023-05-15T00:52:20;101239.54;;;23.81;100.00
50065;BME280;64524;47.848;-122.338;2023-05-15T00:54:49;101238.95;;;23.87;100.00
50065;BME280;64524;47.848;-122.338;2023-05-15T00:57:19;101236.46;;;23.93;100.00
50065;BME280;64524;47.848;-122.338;2023-05-15T00:59:53;101231.85;;;23.99;100.00
50065;BME280;64524;47.848;-122.338;2023-05-15T01:02:23;101228.46;;;24.04;100.00
50065;BME280;64524;47.848;-122.338;2023-05-15T01:04:52;101221.98;;;24.07;100.00
50065;BME280;64524;47.848;-122.338;2023-05-15T01:07:21;101222.20;;;24.10;100.00
50065;BME280;64524;47.848;-122.338;2023-05-15T01:09:52;101218.84;;;24.16;100.00
50065;BME280;64524;47.848;-122.338;2023-05-15T01:12:28;101225.19;;;24.21;100.00
50065;BME280;64524;47.848;-122.338;2023-05-15T01:15:03;101224.76;;;24.23;100.00
50065;BME280;64524;47.848;-122.338;2023-05-15T01:17:32;101228.61;;;24.24;100.00
50065;BME280;64524;47.848;-122.338;2023-05-15T01:20:03;101226.09;;;24.25;100.00
50065;BME280;64524;47.848;-122.338;2023-05-15T01:22:58;101221.00;;;24.24;100.00
50065;BME280;64524;47.848;-122.338;2023-05-15T01:28:08;101217.49;;;24.18;100.00
50065;BME280;64524;47.848;-122.338;2023-05-15T01:30:44;101213.23;;;24.14;100.00
50065;BME280;64524;47.848;-122.338;2023-05-15T01:33:28;101212.48;;;24.10;100.00
50065;BME280;64524;47.848;-122.338;2023-05-15T01:36:11;101208.30;;;24.04;100.00
50065;BME280;64524;47.848;-122.338;2023-05-15T01:38:46;101207.11;;;23.98;100.00
50065;BME280;64524;47.848;-122.338;2023-05-15T01:41:21;101205.67;;;23.93;100.00
50065;BME280;64524;47.848;-122.338;2023-05-15T01:43:56;101200.70;;;23.89;100.00
50065;BME280;64524;47.848;-122.338;2023-05-15T01:46:29;101201.34;;;23.86;100.00
50065;BME280;64524;47.848;-122.338;2023-05-15T01:49:02;101205.35;;;23.83;100.00
50065;BME280;64524;47.848;-122.338;2023-05-15T01:51:35;101203.01;;;23.79;100.00
50065;BME280;64524;47.848;-122.338;2023-05-15T01:54:08;101198.17;;;23.74;100.00
50065;BME280;64524;47.848;-122.338;2023-05-15T01:56:39;101201.34;;;23.70;100.00
50065;BME280;64524;47.848;-122.338;2023-05-15T01:59:12;101208.56;;;23.66;100.00
50065;BME280;64524;47.848;-122.338;2023-05-15T02:01:44;101209.04;;;23.63;100.00
50065;BME280;64524;47.848;-122.338;2023-05-15T02:07:48;101204.55;;;23.44;100.00
50065;BME280;64524;47.848;-122.338;2023-05-15T02:10:22;101201.64;;;23.36;100.00
50065;BME280;64524;47.848;-122.338;2023-05-15T02:12:52;101204.33;;;23.29;100.00
50065;BME280;64524;47.848;-122.338;2023-05-15T02:15:26;101201.02;;;23.23;100.00
50065;BME280;64524;47.848;-122.338;2023-05-15T02:17:56;101200.86;;;23.17;100.00
50065;BME280;64524;47.848;-122.338;2023-05-15T02:20:28;101200.50;;;23.12;100.00
50065;BME280;64524;47.848;-122.338;2023-05-15T02:23:00;101197.65;;;23.07;100.00
50065;BME280;64524;47.848;-122.338;2023-05-15T02:26:11;101194.93;;;23.03;100.00
50065;BME280;64524;47.848;-122.338;2023-05-15T02:34:51;101189.67;;;22.85;100.00
50065;BME280;64524;47.848;-122.338;2023-05-15T02:37:32;101196.35;;;22.80;100.00
50065;BME280;64524;47.848;-122.338;2023-05-15T02:40:04;101199.67;;;22.76;100.00
50065;BME280;64524;47.848;-122.338;2023-05-15T02:42:42;101203.88;;;22.71;100.00
50065;BME280;64524;47.848;-122.338;2023-05-15T02:45:12;101205.66;;;22.65;100.00
50065;BME280;64524;47.848;-122.338;2023-05-15T02:47:41;101209.34;;;22.60;100.00
50065;BME280;64524;47.848;-122.338;2023-05-15T02:50:10;101208.27;;;22.55;100.00
50065;BME280;64524;47.848;-122.338;2023-05-15T02:53:01;101208.94;;;22.50;100.00
50065;BME280;64524;47.848;-122.338;2023-05-15T02:55:30;101210.34;;;22.44;100.00
50065;BME280;64524;47.848;-122.338;2023-05-15T02:57:59;101209.80;;;22.39;100.00
50065;BME280;64524;47.848;-122.338;2023-05-15T03:00:31;101209.45;;;22.32;100.00
50065;BME280;64524;47.848;-122.338;2023-05-15T03:03:00;101210.14;;;22.27;100.00
50065;BME280;64524;47.848;-122.338;2023-05-15T03:05:29;101213.95;;;22.22;100.00
50065;BME280;64524;47.848;-122.338;2023-05-15T03:07:59;101222.73;;;22.17;100.00
50065;BME280;64524;47.848;-122.338;2023-05-15T03:10:31;101227.45;;;22.12;100.00
50065;BME280;64524;47.848;-122.338;2023-05-15T03:13:04;101231.17;;;22.06;100.00
50065;BME280;64524;47.848;-122.338;2023-05-15T03:15:34;101231.87;;;22.00;100.00
50065;BME280;64524;47.848;-122.338;2023-05-15T03:18:03;101235.73;;;21.94;100.00
50065;BME280;64524;47.848;-122.338;2023-05-15T03:20:32;101234.80;;;21.89;100.00
50065;BME280;64524;47.848;-122.338;2023-05-15T03:23:04;101233.17;;;21.84;100.00
50065;BME280;64524;47.848;-122.338;2023-05-15T03:25:33;101233.50;;;21.78;100.00
50065;BME280;64524;47.848;-122.338;2023-05-15T03:28:06;101235.95;;;21.72;100.00
50065;BME280;64524;47.848;-122.338;2023-05-15T03:30:35;101229.74;;;21.67;100.00
50065;BME280;64524;47.848;-122.338;2023-05-15T03:33:04;101232.02;;;21.61;100.00
50065;BME280;64524;47.848;-122.338;2023-05-15T03:35:33;101230.58;;;21.55;100.00
50065;BME280;64524;47.848;-122.338;2023-05-15T03:38:05;101231.80;;;21.49;100.00
50065;BME280;64524;47.848;-122.338;2023-05-15T03:40:37;101234.41;;;21.42;100.00
50065;BME280;64524;47.848;-122.338;2023-05-15T03:43:07;101231.08;;;21.34;100.00
50065;BME280;64524;47.848;-122.338;2023-05-15T03:45:49;101232.84;;;21.26;100.00
50065;BME280;64524;47.848;-122.338;2023-05-15T03:48:21;101237.25;;;21.20;100.00
50065;BME280;64524;47.848;-122.338;2023-05-15T03:50:54;101238.83;;;21.13;100.00
50065;BME280;64524;47.848;-122.338;2023-05-15T03:53:27;101237.23;;;21.05;100.00
50065;BME280;64524;47.848;-122.338;2023-05-15T03:56:08;101235.82;;;20.98;100.00
50065;BME280;64524;47.848;-122.338;2023-05-15T03:58:37;101240.50;;;20.93;100.00
50065;BME280;64524;47.848;-122.338;2023-05-15T04:01:16;101242.03;;;20.88;100.00
50065;BME280;64524;47.848;-122.338;2023-05-15T04:03:49;101243.92;;;20.82;100.00
50065;BME280;64524;47.848;-122.338;2023-05-15T04:06:19;101243.33;;;20.77;100.00
50065;BME280;64524;47.848;-122.338;2023-05-15T04:08:48;101241.52;;;20.72;100.00
50065;BME280;64524;47.848;-122.338;2023-05-15T04:11:18;101246.34;;;20.68;100.00
50065;BME280;64524;47.848;-122.338;2023-05-15T04:13:51;101243.05;;;20.65;100.00
50065;BME280;64524;47.848;-122.338;2023-05-15T04:16:22;101248.23;;;20.62;100.00
50065;BME280;64524;47.848;-122.338;2023-05-15T04:18:51;101249.34;;;20.58;100.00
50065;BME280;64524;47.848;-122.338;2023-05-15T04:21:20;101252.42;;;20.55;100.00
50065;BME280;64524;47.848;-122.338;2023-05-15T04:23:49;101253.02;;;20.50;100.00
50065;BME280;64524;47.848;-122.338;2023-05-15T04:26:18;101257.49;;;20.47;100.00
50065;BME280;64524;47.848;-122.338;2023-05-15T04:28:47;101258.45;;;20.44;100.00
50065;BME280;64524;47.848;-122.338;2023-05-15T04:31:33;101262.03;;;20.40;100.00
50065;BME280;64524;47.848;-122.338;2023-05-15T04:34:05;101264.21;;;20.37;100.00
50065;BME280;64524;47.848;-122.338;2023-05-15T04:36:35;101263.73;;;20.34;100.00
50065;BME280;64524;47.848;-122.338;2023-05-15T04:39:09;101265.90;;;20.31;100.00
50065;BME280;64524;47.848;-122.338;2023-05-15T04:41:38;101267.17;;;20.29;100.00
50065;BME280;64524;47.848;-122.338;2023-05-15T04:44:07;101265.98;;;20.27;100.00
50065;BME280;64524;47.848;-122.338;2023-05-15T04:46:40;101271.48;;;20.25;100.00
50065;BME280;64524;47.848;-122.338;2023-05-15T04:49:09;101275.21;;;20.23;100.00
50065;BME280;64524;47.848;-122.338;2023-05-15T04:51:38;101272.77;;;20.22;100.00
50065;BME280;64524;47.848;-122.338;2023-05-15T04:54:09;101273.67;;;20.21;100.00
50065;BME280;64524;47.848;-122.338;2023-05-15T04:56:38;101274.02;;;20.21;100.00
50065;BME280;64524;47.848;-122.338;2023-05-15T04:59:07;101278.77;;;20.21;100.00
50065;BME280;64524;47.848;-122.338;2023-05-15T05:01:37;101277.73;;;20.20;100.00
50065;BME280;64524;47.848;-122.338;2023-05-15T05:04:06;101278.61;;;20.20;100.00
50065;BME280;64524;47.848;-122.338;2023-05-15T05:06:35;101280.55;;;20.19;100.00
50065;BME280;64524;47.848;-122.338;2023-05-15T05:09:04;101276.86;;;20.19;100.00
50065;BME280;64524;47.848;-122.338;2023-05-15T05:11:33;101274.77;;;20.18;100.00
50065;BME280;64524;47.848;-122.338;2023-05-15T05:14:05;101276.20;;;20.18;100.00
50065;BME280;64524;47.848;-122.338;2023-05-15T05:16:38;101273.42;;;20.16;100.00
50065;BME280;64524;47.848;-122.338;2023-05-15T05:19:08;101276.27;;;20.13;100.00
50065;BME280;64524;47.848;-122.338;2023-05-15T05:21:37;101274.55;;;20.11;100.00
50065;BME280;64524;47.848;-122.338;2023-05-15T05:24:26;101274.41;;;20.09;100.00
50065;BME280;64524;47.848;-122.338;2023-05-15T05:26:55;101277.45;;;20.07;100.00
50065;BME280;64524;47.848;-122.338;2023-05-15T05:29:29;101277.99;;;20.06;100.00
50065;BME280;64524;47.848;-122.338;2023-05-15T05:32:11;101278.50;;;20.06;100.00
50065;BME280;64524;47.848;-122.338;2023-05-15T05:35:22;101280.26;;;20.07;100.00
50065;BME280;64524;47.848;-122.338;2023-05-15T05:38:09;101280.41;;;20.08;100.00
50065;BME280;64524;47.848;-122.338;2023-05-15T05:41:08;101280.04;;;20.09;100.00
50065;BME280;64524;47.848;-122.338;2023-05-15T05:43:39;101274.60;;;20.09;100.00
50065;BME280;64524;47.848;-122.338;2023-05-15T05:46:14;101273.20;;;20.08;100.00
50065;BME280;64524;47.848;-122.338;2023-05-15T05:48:43;101273.92;;;20.07;100.00
50065;BME280;64524;47.848;-122.338;2023-05-15T05:51:14;101266.21;;;20.06;100.00
50065;BME280;64524;47.848;-122.338;2023-05-15T05:53:42;101264.16;;;20.03;100.00
50065;BME280;64524;47.848;-122.338;2023-05-15T05:56:12;101258.25;;;20.00;100.00
50065;BME280;64524;47.848;-122.338;2023-05-15T05:58:41;101255.17;;;19.95;100.00
50065;BME280;64524;47.848;-122.338;2023-05-15T06:01:13;101256.85;;;19.90;100.00
50065;BME280;64524;47.848;-122.338;2023-05-15T06:03:42;101258.54;;;19.84;100.00
50065;BME280;64524;47.848;-122.338;2023-05-15T06:06:12;101253.02;;;19.78;100.00
50065;BME280;64524;47.848;-122.338;2023-05-15T06:08:41;101249.60;;;19.71;100.00
50065;BME280;64524;47.848;-122.338;2023-05-15T06:11:10;101243.04;;;19.64;100.00
50065;BME280;64524;47.848;-122.338;2023-05-15T06:13:38;101246.16;;;19.56;100.00
50065;BME280;64524;47.848;-122.338;2023-05-15T06:16:17;101240.14;;;19.48;100.00
50065;BME280;64524;47.848;-122.338;2023-05-15T06:18:46;101239.90;;;19.42;100.00
50065;BME280;64524;47.848;-122.338;2023-05-15T06:21:16;101237.36;;;19.36;100.00
50065;BME280;64524;47.848;-122.338;2023-05-15T06:23:45;101237.46;;;19.31;100.00
50065;BME280;64524;47.848;-122.338;2023-05-15T06:26:17;101240.67;;;19.27;100.00
50065;BME280;64524;47.848;-122.338;2023-05-15T06:28:50;101232.48;;;19.23;100.00
50065;BME280;64524;47.848;-122.338;2023-05-15T06:31:22;101232.89;;;19.19;100.00
50065;BME280;64524;47.848;-122.338;2023-05-15T06:33:52;101234.36;;;19.15;100.00
50065;BME280;64524;47.848;-122.338;2023-05-15T06:36:21;101230.38;;;19.11;100.00
50065;BME280;64524;47.848;-122.338;2023-05-15T06:39:01;101231.50;;;19.07;100.00
50065;BME280;64524;47.848;-122.338;2023-05-15T06:41:31;101229.09;;;19.04;100.00
50065;BME280;64524;47.848;-122.338;2023-05-15T06:44:01;101222.99;;;19.01;100.00
50065;BME280;64524;47.848;-122.338;2023-05-15T06:46:30;101223.91;;;18.97;100.00
50065;BME280;64524;47.848;-122.338;2023-05-15T06:49:00;101226.59;;;18.94;100.00
50065;BME280;64524;47.848;-122.338;2023-05-15T06:51:29;101228.91;;;18.92;100.00
50065;BME280;64524;47.848;-122.338;2023-05-15T06:54:07;101234.60;;;18.88;100.00
50065;BME280;64524;47.848;-122.338;2023-05-15T06:56:37;101229.76;;;18.83;100.00
50065;BME280;64524;47.848;-122.338;2023-05-15T06:59:06;101227.14;;;18.78;100.00
50065;BME280;64524;47.848;-122.338;2023-05-15T07:01:35;101229.48;;;18.75;100.00
50065;BME280;64524;47.848;-122.338;2023-05-15T07:04:05;101227.75;;;18.72;100.00
50065;BME280;64524;47.848;-122.338;2023-05-15T07:06:34;101226.57;;;18.69;100.00
50065;BME280;64524;47.848;-122.338;2023-05-15T07:09:08;101228.04;;;18.65;100.00
50065;BME280;64524;47.848;-122.338;2023-05-15T07:11:55;101228.41;;;18.63;100.00
50065;BME280;64524;47.848;-122.338;2023-05-15T07:14:45;101229.52;;;18.59;100.00
50065;BME280;64524;47.848;-122.338;2023-05-15T07:17:17;101227.45;;;18.55;100.00
50065;BME280;64524;47.848;-122.338;2023-05-15T07:19:58;101224.91;;;18.49;100.00
50065;BME280;64524;47.848;-122.338;2023-05-15T07:25:42;101227.16;;;18.38;100.00
50065;BME280;64524;47.848;-122.338;2023-05-15T07:28:12;101222.63;;;18.35;100.00
50065;BME280;64524;47.848;-122.338;2023-05-15T07:30:45;101215.12;;;18.32;100.00
50065;BME280;64524;47.848;-122.338;2023-05-15T07:33:14;101215.35;;;18.29;100.00
50065;BME280;64524;47.848;-122.338;2023-05-15T07:35:46;101215.02;;;18.27;100.00
50065;BME280;64524;47.848;-122.338;2023-05-15T07:38:19;101216.59;;;18.26;100.00
50065;BME280;64524;47.848;-122.338;2023-05-15T07:40:51;101212.77;;;18.24;100.00
50065;BME280;64524;47.848;-122.338;2023-05-15T07:43:20;101211.91;;;18.21;100.00
50065;BME280;64524;47.848;-122.338;2023-05-15T07:45:49;101216.68;;;18.19;100.00
50065;BME280;64524;47.848;-122.338;2023-05-15T07:48:19;101221.27;;;18.18;100.00
50065;BME280;64524;47.848;-122.338;2023-05-15T07:50:48;101222.67;;;18.16;100.00
50065;BME280;64524;47.848;-122.338;2023-05-15T07:53:20;101225.69;;;18.14;100.00
50065;BME280;64524;47.848;-122.338;2023-05-15T07:55:58;101231.12;;;18.12;100.00
50065;BME280;64524;47.848;-122.338;2023-05-15T07:58:31;101237.14;;;18.09;100.00
50065;BME280;64524;47.848;-122.338;2023-05-15T08:01:03;101235.25;;;18.06;100.00
50065;BME280;64524;47.848;-122.338;2023-05-15T08:03:32;101232.28;;;18.04;100.00
50065;BME280;64524;47.848;-122.338;2023-05-15T08:06:02;101229.36;;;17.99;100.00
50065;BME280;64524;47.848;-122.338;2023-05-15T08:08:34;101230.09;;;17.95;100.00
50065;BME280;64524;47.848;-122.338;2023-05-15T08:11:03;101229.09;;;17.92;100.00
50065;BME280;64524;47.848;-122.338;2023-05-15T08:13:32;101226.83;;;17.90;100.00
50065;BME280;64524;47.848;-122.338;2023-05-15T08:16:02;101223.52;;;17.87;100.00
50065;BME280;64524;47.848;-122.338;2023-05-15T08:18:34;101219.50;;;17.84;100.00
50065;BME280;64524;47.848;-122.338;2023-05-15T08:21:06;101220.90;;;17.83;100.00
50065;BME280;64524;47.848;-122.338;2023-05-15T08:23:38;101221.42;;;17.82;100.00
50065;BME280;64524;47.848;-122.338;2023-05-15T08:26:10;101219.85;;;17.83;100.00
50065;BME280;64524;47.848;-122.338;2023-05-15T08:28:39;101218.45;;;17.84;100.00
50065;BME280;64524;47.848;-122.338;2023-05-15T08:31:08;101218.27;;;17.86;100.00
50065;BME280;64524;47.848;-122.338;2023-05-15T08:33:37;101219.29;;;17.89;100.00
50065;BME280;64524;47.848;-122.338;2023-05-15T08:36:08;101215.77;;;17.92;100.00
50065;BME280;64524;47.848;-122.338;2023-05-15T08:38:37;101217.48;;;17.96;100.00
50065;BME280;64524;47.848;-122.338;2023-05-15T08:41:17;101221.47;;;18.00;100.00
50065;BME280;64524;47.848;-122.338;2023-05-15T08:44:08;101220.89;;;18.03;100.00
50065;BME280;64524;47.848;-122.338;2023-05-15T08:46:38;101221.59;;;18.05;100.00
50065;BME280;64524;47.848;-122.338;2023-05-15T08:50:01;101221.91;;;18.07;100.00
50065;BME280;64524;47.848;-122.338;2023-05-15T08:52:03;101224.14;;;18.11;100.00
50065;BME280;64524;47.848;-122.338;2023-05-15T08:54:34;101220.61;;;18.14;100.00
50065;BME280;64524;47.848;-122.338;2023-05-15T08:57:07;101222.67;;;18.16;100.00
50065;BME280;64524;47.848;-122.338;2023-05-15T08:59:37;101221.27;;;18.18;100.00
50065;BME280;64524;47.848;-122.338;2023-05-15T09:02:08;101224.25;;;18.16;100.00
50065;BME280;64524;47.848;-122.338;2023-05-15T09:04:41;101222.71;;;18.14;100.00
50065;BME280;64524;47.848;-122.338;2023-05-15T09:07:11;101223.11;;;18.10;100.00
50065;BME280;64524;47.848;-122.338;2023-05-15T09:09:44;101217.89;;;18.06;100.00
50065;BME280;64524;47.848;-122.338;2023-05-15T09:15:44;101214.94;;;18.03;100.00
50065;BME280;64524;47.848;-122.338;2023-05-15T09:18:21;101212.80;;;18.07;100.00
50065;BME280;64524;47.848;-122.338;2023-05-15T09:20:50;101212.97;;;18.07;100.00
50065;BME280;64524;47.848;-122.338;2023-05-15T09:23:27;101211.20;;;18.09;100.00
50065;BME280;64524;47.848;-122.338;2023-05-15T09:26:00;101209.98;;;18.08;100.00
50065;BME280;64524;47.848;-122.338;2023-05-15T09:28:31;101214.89;;;18.07;100.00
50065;BME280;64524;47.848;-122.338;2023-05-15T09:31:02;101211.08;;;18.04;100.00
50065;BME280;64524;47.848;-122.338;2023-05-15T09:33:39;101205.33;;;18.01;100.00
50065;BME280;64524;47.848;-122.338;2023-05-15T09:36:09;101206.27;;;17.96;100.00
50065;BME280;64524;47.848;-122.338;2023-05-15T09:38:56;101205.77;;;17.91;100.00
50065;BME280;64524;47.848;-122.338;2023-05-15T09:41:26;101206.38;;;17.82;100.00
50065;BME280;64524;47.848;-122.338;2023-05-15T09:43:55;101206.99;;;17.72;100.00
50065;BME280;64524;47.848;-122.338;2023-05-15T09:46:25;101206.04;;;17.62;100.00
50065;BME280;64524;47.848;-122.338;2023-05-15T09:49:03;101206.52;;;17.50;100.00
50065;BME280;64524;47.848;-122.338;2023-05-15T09:51:42;101206.63;;;17.36;100.00
50065;BME280;64524;47.848;-122.338;2023-05-15T09:54:22;101208.27;;;17.27;100.00
50065;BME280;64524;47.848;-122.338;2023-05-15T09:56:52;101204.31;;;17.20;100.00
50065;BME280;64524;47.848;-122.338;2023-05-15T09:59:21;101205.92;;;17.16;100.00
50065;BME280;64524;47.848;-122.338;2023-05-15T10:01:54;101206.48;;;17.09;100.00
50065;BME280;64524;47.848;-122.338;2023-05-15T10:04:23;101205.65;;;17.04;100.00
50065;BME280;64524;47.848;-122.338;2023-05-15T10:06:52;101205.68;;;17.00;100.00
50065;BME280;64524;47.848;-122.338;2023-05-15T10:09:29;101203.41;;;16.98;100.00
50065;BME280;64524;47.848;-122.338;2023-05-15T10:12:01;101202.92;;;16.94;100.00
50065;BME280;64524;47.848;-122.338;2023-05-15T10:14:31;101204.71;;;16.88;100.00
50065;BME280;64524;47.848;-122.338;2023-05-15T10:17:01;101200.17;;;16.82;100.00
50065;BME280;64524;47.848;-122.338;2023-05-15T10:19:41;101201.08;;;16.77;100.00
50065;BME280;64524;47.848;-122.338;2023-05-15T10:22:28;101205.48;;;16.70;100.00
50065;BME280;64524;47.848;-122.338;2023-05-15T10:25:08;101205.00;;;16.65;100.00
50065;BME280;64524;47.848;-122.338;2023-05-15T10:27:42;101202.92;;;16.59;100.00
50065;BME280;64524;47.848;-122.338;2023-05-15T10:30:17;101203.30;;;16.54;100.00
50065;BME280;64524;47.848;-122.338;2023-05-15T10:32:48;101201.92;;;16.50;100.00
50065;BME280;64524;47.848;-122.338;2023-05-15T10:35:21;101200.88;;;16.47;100.00
50065;BME280;64524;47.848;-122.338;2023-05-15T10:37:49;101198.98;;;16.43;100.00
50065;BME280;64524;47.848;-122.338;2023-05-15T10:40:19;101199.02;;;16.37;100.00
50065;BME280;64524;47.848;-122.338;2023-05-15T10:42:49;101195.36;;;16.32;100.00
50065;BME280;64524;47.848;-122.338;2023-05-15T10:45:21;101196.25;;;16.26;100.00
50065;BME280;64524;47.848;-122.338;2023-05-15T10:47:50;101203.42;;;16.24;100.00
50065;BME280;64524;47.848;-122.338;2023-05-15T10:50:20;101201.34;;;16.26;100.00
50065;BME280;64524;47.848;-122.338;2023-05-15T10:52:54;101204.99;;;16.27;100.00
50065;BME280;64524;47.848;-122.338;2023-05-15T10:55:43;101208.48;;;16.29;100.00
50065;BME280;64524;47.848;-122.338;2023-05-15T10:58:16;101207.96;;;16.30;100.00
50065;BME280;64524;47.848;-122.338;2023-05-15T11:01:23;101212.14;;;16.33;100.00
50065;BME280;64524;47.848;-122.338;2023-05-15T11:07:14;101218.08;;;16.37;100.00
50065;BME280;64524;47.848;-122.338;2023-05-15T11:09:43;101212.46;;;16.39;100.00
50065;BME280;64524;47.848;-122.338;2023-05-15T11:12:21;101216.10;;;16.41;100.00
50065;BME280;64524;47.848;-122.338;2023-05-15T11:17:34;101210.51;;;16.45;100.00
50065;BME280;64524;47.848;-122.338;2023-05-15T11:20:12;101208.92;;;16.47;100.00
50065;BME280;64524;47.848;-122.338;2023-05-15T11:22:42;101207.18;;;16.46;100.00
50065;BME280;64524;47.848;-122.338;2023-05-15T11:25:29;101207.56;;;16.41;100.00
50065;BME280;64524;47.848;-122.338;2023-05-15T11:28:04;101208.45;;;16.37;100.00
50065;BME280;64524;47.848;-122.338;2023-05-15T11:30:50;101210.74;;;16.33;100.00
50065;BME280;64524;47.848;-122.338;2023-05-15T11:33:40;101213.21;;;16.30;100.00
50065;BME280;64524;47.848;-122.338;2023-05-15T11:36:14;101216.00;;;16.29;100.00
50065;BME280;64524;47.848;-122.338;2023-05-15T11:38:55;101214.25;;;16.29;100.00
50065;BME280;64524;47.848;-122.338;2023-05-15T11:41:30;101213.37;;;16.31;100.00
50065;BME280;64524;47.848;-122.338;2023-05-15T11:44:03;101209.52;;;16.31;100.00
50065;BME280;64524;47.848;-122.338;2023-05-15T11:46:32;101206.71;;;16.31;100.00
50065;BME280;64524;47.848;-122.338;2023-05-15T11:49:01;101209.52;;;16.35;100.00
50065;BME280;64524;47.848;-122.338;2023-05-15T11:51:31;101205.65;;;16.39;100.00
50065;BME280;64524;47.848;-122.338;2023-05-15T11:54:01;101207.00;;;16.45;100.00
50065;BME280;64524;47.848;-122.338;2023-05-15T11:56:32;101207.70;;;16.51;100.00
50065;BME280;64524;47.848;-122.338;2023-05-15T11:59:26;101209.77;;;16.57;100.00
50065;BME280;64524;47.848;-122.338;2023-05-15T12:01:55;101207.27;;;16.64;100.00
50065;BME280;64524;47.848;-122.338;2023-05-15T12:04:24;101208.46;;;16.70;100.00
50065;BME280;64524;47.848;-122.338;2023-05-15T12:06:53;101201.43;;;16.76;100.00
50065;BME280;64524;47.848;-122.338;2023-05-15T12:09:23;101198.63;;;16.83;100.00
50065;BME280;64524;47.848;-122.338;2023-05-15T12:11:56;101196.31;;;16.87;100.00
50065;BME280;64524;47.848;-122.338;2023-05-15T12:14:29;101195.75;;;16.91;100.00
50065;BME280;64524;47.848;-122.338;2023-05-15T12:17:02;101197.33;;;16.94;100.00
50065;BME280;64524;47.848;-122.338;2023-05-15T12:19:43;101195.02;;;16.97;100.00
50065;BME280;64524;47.848;-122.338;2023-05-15T12:22:16;101197.64;;;16.98;100.00
50065;BME280;64524;47.848;-122.338;2023-05-15T12:24:47;101197.11;;;17.00;100.00
50065;BME280;64524;47.848;-122.338;2023-05-15T12:27:16;101198.16;;;17.01;100.00
50065;BME280;64524;47.848;-122.338;2023-05-15T12:29:45;101201.30;;;17.01;100.00
50065;BME280;64524;47.848;-122.338;2023-05-15T12:32:15;101205.52;;;17.01;100.00
50065;BME280;64524;47.848;-122.338;2023-05-15T12:34:45;101204.27;;;17.01;100.00
50065;BME280;64524;47.848;-122.338;2023-05-15T12:37:18;101205.30;;;17.02;100.00
50065;BME280;64524;47.848;-122.338;2023-05-15T12:39:50;101207.75;;;17.04;100.00
50065;BME280;64524;47.848;-122.338;2023-05-15T12:42:20;101204.77;;;17.04;100.00
50065;BME280;64524;47.848;-122.338;2023-05-15T12:44:52;101208.61;;;17.04;100.00
50065;BME280;64524;47.848;-122.338;2023-05-15T12:47:36;101208.63;;;17.03;100.00
50065;BME280;64524;47.848;-122.338;2023-05-15T12:53:17;101215.52;;;16.95;100.00
50065;BME280;64524;47.848;-122.338;2023-05-15T12:56:07;101222.88;;;16.92;100.00
50065;BME280;64524;47.848;-122.338;2023-05-15T12:59:10;101229.04;;;16.86;100.00
50065;BME280;64524;47.848;-122.338;2023-05-15T13:01:40;101229.92;;;16.80;100.00
50065;BME280;64524;47.848;-122.338;2023-05-15T13:04:10;101227.85;;;16.74;100.00
50065;BME280;64524;47.848;-122.338;2023-05-15T13:06:39;101228.94;;;16.68;100.00
50065;BME280;64524;47.848;-122.338;2023-05-15T13:09:21;101232.29;;;16.62;100.00
50065;BME280;64524;47.848;-122.338;2023-05-15T13:11:53;101233.89;;;16.57;100.00
50065;BME280;64524;47.848;-122.338;2023-05-15T13:14:23;101232.50;;;16.52;100.00